sensor_id;sensor_type;location;lat;lon;timestamp;P1;durP1;ratioP1;P2;durP2;ratioP2
72573;SDS011;60603;52.548;13.420;2023-05-17T00:00:35;4.80;;;1.27;;
72573;SDS011;60603;52.548;13.420;2023-05-17T00:03:14;4.72;;;1.30;;
72573;SDS011;60603;52.548;13.420;2023-05-17T00:05:39;5.88;;;1.50;;
72573;SDS011;60603;52.548;13.420;2023-05-17T00:08:05;8.20;;;1.50;;
72573;SDS011;60603;52.548;13.420;2023-05-17T00:10:31;8.40;;;1.70;;
72573;SDS011;60603;52.548;13.420;2023-05-17T00:12:56;6.32;;;1.80;;
72573;SDS011;60603;52.548;13.420;2023-05-17T00:15:22;6.60;;;1.88;;
72573;SDS011;60603;52.548;13.420;2023-05-17T00:17:48;6.43;;;1.58;;
72573;SDS011;60603;52.548;13.420;2023-05-17T00:20:14;7.38;;;1.80;;
72573;SDS011;60603;52.548;13.420;2023-05-17T00:22:39;6.50;;;1.73;;
72573;SDS011;60603;52.548;13.420;2023-05-17T00:25:05;6.40;;;1.90;;
72573;SDS011;60603;52.548;13.420;2023-05-17T00:27:32;4.78;;;1.50;;
72573;SDS011;60603;52.548;13.420;2023-05-17T00:29:57;7.72;;;2.47;;
72573;SDS011;60603;52.548;13.420;2023-05-17T00:32:23;7.85;;;2.03;;
72573;SDS011;60603;52.548;13.420;2023-05-17T00:34:49;10.75;;;1.77;;
72573;SDS011;60603;52.548;13.420;2023-05-17T00:37:14;8.38;;;2.10;;
72573;SDS011;60603;52.548;13.420;2023-05-17T00:39:40;5.85;;;2.53;;
72573;SDS011;60603;52.548;13.420;2023-05-17T00:42:05;5.22;;;1.95;;
72573;SDS011;60603;52.548;13.420;2023-05-17T00:44:32;7.15;;;2.00;;
72573;SDS011;60603;52.548;13.420;2023-05-17T00:46:57;7.88;;;2.20;;
72573;SDS011;60603;52.548;13.420;2023-05-17T00:49:24;14.77;;;2.35;;
72573;SDS011;60603;52.548;13.420;2023-05-17T00:51:51;6.93;;;1.95;;
72573;SDS011;60603;52.548;13.420;2023-05-17T00:54:18;6.43;;;2.40;;
72573;SDS011;60603;52.548;13.420;2023-05-17T00:56:43;7.40;;;2.00;;
72573;SDS011;60603;52.548;13.420;2023-05-17T00:59:09;10.10;;;2.42;;
72573;SDS011;60603;52.548;13.420;2023-05-17T01:01:39;9.50;;;2.85;;
72573;SDS011;60603;52.548;13.420;2023-05-17T01:04:06;9.45;;;2.30;;
72573;SDS011;60603;52.548;13.420;2023-05-17T01:06:31;10.60;;;2.33;;
72573;SDS011;60603;52.548;13.420;2023-05-17T01:08:58;12.52;;;2.83;;
72573;SDS011;60603;52.548;13.420;2023-05-17T01:14:04;5.88;;;2.10;;
72573;SDS011;60603;52.548;13.420;2023-05-17T01:16:43;10.55;;;2.40;;
72573;SDS011;60603;52.548;13.420;2023-05-17T01:27:27;8.30;;;2.13;;
72573;SDS011;60603;52.548;13.420;2023-05-17T01:29:55;8.48;;;2.80;;
72573;SDS011;60603;52.548;13.420;2023-05-17T01:32:21;9.50;;;2.40;;
72573;SDS011;60603;52.548;13.420;2023-05-17T01:34:47;10.73;;;2.88;;
72573;SDS011;60603;52.548;13.420;2023-05-17T01:37:12;8.40;;;2.40;;
72573;SDS011;60603;52.548;13.420;2023-05-17T01:39:38;9.00;;;2.83;;
72573;SDS011;60603;52.548;13.420;2023-05-17T01:42:21;13.98;;;2.75;;
72573;SDS011;60603;52.548;13.420;2023-05-17T01:44:55;11.82;;;3.17;;
72573;SDS011;60603;52.548;13.420;2023-05-17T01:47:55;7.55;;;2.75;;
72573;SDS011;60603;52.548;13.420;2023-05-17T01:50:28;9.27;;;2.40;;
72573;SDS011;60603;52.548;13.420;2023-05-17T01:53:01;15.27;;;3.08;;
72573;SDS011;60603;52.548;13.420;2023-05-17T01:55:34;9.13;;;2.42;;
72573;SDS011;60603;52.548;13.420;2023-05-17T01:58:06;9.45;;;3.05;;
72573;SDS011;60603;52.548;13.420;2023-05-17T02:00:33;10.32;;;2.75;;
72573;SDS011;60603;52.548;13.420;2023-05-17T02:02:59;9.25;;;2.78;;
72573;SDS011;60603;52.548;13.420;2023-05-17T02:05:25;13.77;;;3.05;;
72573;SDS011;60603;52.548;13.420;2023-05-17T02:07:50;13.50;;;3.47;;
72573;SDS011;60603;52.548;13.420;2023-05-17T02:10:16;13.63;;;3.08;;
72573;SDS011;60603;52.548;13.420;2023-05-17T02:12:42;6.68;;;2.30;;
72573;SDS011;60603;52.548;13.420;2023-05-17T02:15:08;9.52;;;2.85;;
72573;SDS011;60603;52.548;13.420;2023-05-17T02:17:36;8.80;;;2.72;;
72573;SDS011;60603;52.548;13.420;2023-05-17T02:20:04;10.93;;;3.33;;
72573;SDS011;60603;52.548;13.420;2023-05-17T02:22:31;10.23;;;3.50;;
72573;SDS011;60603;52.548;13.420;2023-05-17T02:24:57;10.68;;;3.65;;
72573;SDS011;60603;52.548;13.420;2023-05-17T02:27:22;12.57;;;3.03;;
72573;SDS011;60603;52.548;13.420;2023-05-17T02:29:48;11.48;;;3.60;;
72573;SDS011;60603;52.548;13.420;2023-05-17T02:32:14;7.82;;;2.50;;
72573;SDS011;60603;52.548;13.420;2023-05-17T02:34:40;11.05;;;2.83;;
72573;SDS011;60603;52.548;13.420;2023-05-17T02:37:05;12.20;;;3.35;;
72573;SDS011;60603;52.548;13.420;2023-05-17T02:39:31;7.35;;;2.50;;
72573;SDS011;60603;52.548;13.420;2023-05-17T02:41:57;11.13;;;2.92;;
72573;SDS011;60603;52.548;13.420;2023-05-17T02:44:23;7.38;;;2.42;;
72573;SDS011;60603;52.548;13.420;2023-05-17T02:46:49;10.85;;;3.05;;
72573;SDS011;60603;52.548;13.420;2023-05-17T02:49:15;9.38;;;2.47;;
72573;SDS011;60603;52.548;13.420;2023-05-17T02:51:40;6.40;;;2.47;;
72573;SDS011;60603;52.548;13.420;2023-05-17T02:54:06;12.77;;;3.15;;
72573;SDS011;60603;52.548;13.420;2023-05-17T02:56:32;9.18;;;2.78;;
72573;SDS011;60603;52.548;13.420;2023-05-17T02:58:58;10.98;;;2.83;;
72573;SDS011;60603;52.548;13.420;2023-05-17T03:01:25;9.02;;;2.92;;
72573;SDS011;60603;52.548;13.420;2023-05-17T03:03:52;11.27;;;3.15;;
72573;SDS011;60603;52.548;13.420;2023-05-17T03:06:17;9.95;;;2.58;;
72573;SDS011;60603;52.548;13.420;2023-05-17T03:08:45;11.38;;;2.85;;
72573;SDS011;60603;52.548;13.420;2023-05-17T03:11:11;15.32;;;4.22;;
72573;SDS011;60603;52.548;13.420;2023-05-17T03:13:37;9.68;;;2.50;;
72573;SDS011;60603;52.548;13.420;2023-05-17T03:16:03;13.95;;;3.45;;
72573;SDS011;60603;52.548;13.420;2023-05-17T03:18:29;8.35;;;2.90;;
72573;SDS011;60603;52.548;13.420;2023-05-17T03:20:54;11.25;;;3.10;;
72573;SDS011;60603;52.548;13.420;2023-05-17T03:23:20;9.43;;;2.78;;
72573;SDS011;60603;52.548;13.420;2023-05-17T03:25:46;10.25;;;3.25;;
72573;SDS011;60603;52.548;13.420;2023-05-17T03:28:12;9.75;;;2.85;;
72573;SDS011;60603;52.548;13.420;2023-05-17T03:30:37;8.98;;;2.80;;
72573;SDS011;60603;52.548;13.420;2023-05-17T03:33:03;9.82;;;3.15;;
72573;SDS011;60603;52.548;13.420;2023-05-17T03:35:28;11.80;;;2.97;;
72573;SDS011;60603;52.548;13.420;2023-05-17T03:37:54;13.27;;;3.42;;
72573;SDS011;60603;52.548;13.420;2023-05-17T03:40:20;13.13;;;2.88;;
72573;SDS011;60603;52.548;13.420;2023-05-17T03:42:45;10.02;;;3.30;;
72573;SDS011;60603;52.548;13.420;2023-05-17T03:45:11;11.52;;;3.15;;
72573;SDS011;60603;52.548;13.420;2023-05-17T03:47:37;8.55;;;2.60;;
72573;SDS011;60603;52.548;13.420;2023-05-17T03:50:03;11.07;;;3.95;;
72573;SDS011;60603;52.548;13.420;2023-05-17T03:52:30;10.85;;;2.80;;
72573;SDS011;60603;52.548;13.420;2023-05-17T03:54:56;10.27;;;3.10;;
72573;SDS011;60603;52.548;13.420;2023-05-17T03:57:22;11.52;;;3.65;;
72573;SDS011;60603;52.548;13.420;2023-05-17T03:59:47;8.43;;;2.55;;
72573;SDS011;60603;52.548;13.420;2023-05-17T04:02:16;8.93;;;3.30;;
72573;SDS011;60603;52.548;13.420;2023-05-17T04:04:48;9.40;;;2.90;;
72573;SDS011;60603;52.548;13.420;2023-05-17T04:07:15;9.27;;;2.58;;
72573;SDS011;60603;52.548;13.420;2023-05-17T04:09:41;10.55;;;2.60;;
72573;SDS011;60603;52.548;13.420;2023-05-17T04:12:07;9.73;;;3.08;;
72573;SDS011;60603;52.548;13.420;2023-05-17T04:14:35;12.73;;;3.40;;
72573;SDS011;60603;52.548;13.420;2023-05-17T04:17:04;10.57;;;2.63;;
72573;SDS011;60603;52.548;13.420;2023-05-17T04:19:29;10.45;;;3.05;;
72573;SDS011;60603;52.548;13.420;2023-05-17T04:21:55;12.77;;;3.80;;
72573;SDS011;60603;52.548;13.420;2023-05-17T04:24:21;14.20;;;3.85;;
72573;SDS011;60603;52.548;13.420;2023-05-17T04:26:47;12.52;;;3.13;;
72573;SDS011;60603;52.548;13.420;2023-05-17T04:29:12;12.70;;;3.03;;
72573;SDS011;60603;52.548;13.420;2023-05-17T04:31:38;9.60;;;3.33;;
72573;SDS011;60603;52.548;13.420;2023-05-17T04:34:03;12.15;;;3.20;;
72573;SDS011;60603;52.548;13.420;2023-05-17T04:36:29;14.05;;;3.30;;
72573;SDS011;60603;52.548;13.420;2023-05-17T04:38:55;10.23;;;3.25;;
72573;SDS011;60603;52.548;13.420;2023-05-17T04:41:20;9.23;;;3.33;;
72573;SDS011;60603;52.548;13.420;2023-05-17T04:43:46;10.30;;;2.90;;
72573;SDS011;60603;52.548;13.420;2023-05-17T04:46:12;9.00;;;3.50;;
72573;SDS011;60603;52.548;13.420;2023-05-17T04:48:37;10.40;;;3.42;;
72573;SDS011;60603;52.548;13.420;2023-05-17T04:51:03;11.48;;;3.10;;
72573;SDS011;60603;52.548;13.420;2023-05-17T04:53:29;7.72;;;2.53;;
72573;SDS011;60603;52.548;13.420;2023-05-17T04:55:56;8.57;;;3.15;;
72573;SDS011;60603;52.548;13.420;2023-05-17T04:58:22;13.63;;;2.88;;
72573;SDS011;60603;52.548;13.420;2023-05-17T05:00:51;9.70;;;3.30;;
72573;SDS011;60603;52.548;13.420;2023-05-17T05:03:17;11.57;;;2.83;;
72573;SDS011;60603;52.548;13.420;2023-05-17T05:05:43;9.10;;;2.65;;
72573;SDS011;60603;52.548;13.420;2023-05-17T05:08:09;9.93;;;3.35;;
72573;SDS011;60603;52.548;13.420;2023-05-17T05:10:35;7.07;;;2.67;;
72573;SDS011;60603;52.548;13.420;2023-05-17T05:13:01;10.57;;;2.53;;
72573;SDS011;60603;52.548;13.420;2023-05-17T05:15:26;8.60;;;2.97;;
72573;SDS011;60603;52.548;13.420;2023-05-17T05:17:52;10.60;;;3.05;;
72573;SDS011;60603;52.548;13.420;2023-05-17T05:20:18;11.65;;;2.58;;
72573;SDS011;60603;52.548;13.420;2023-05-17T05:22:44;8.43;;;2.58;;
72573;SDS011;60603;52.548;13.420;2023-05-17T05:25:10;9.65;;;2.80;;
72573;SDS011;60603;52.548;13.420;2023-05-17T05:27:35;8.05;;;2.72;;
72573;SDS011;60603;52.548;13.420;2023-05-17T05:30:01;12.32;;;2.67;;
72573;SDS011;60603;52.548;13.420;2023-05-17T05:32:27;13.85;;;2.90;;
72573;SDS011;60603;52.548;13.420;2023-05-17T05:34:53;13.32;;;2.83;;
72573;SDS011;60603;52.548;13.420;2023-05-17T05:37:18;8.88;;;2.78;;
72573;SDS011;60603;52.548;13.420;2023-05-17T05:39:45;7.68;;;2.70;;
72573;SDS011;60603;52.548;13.420;2023-05-17T05:42:10;11.30;;;2.95;;
72573;SDS011;60603;52.548;13.420;2023-05-17T05:44:36;11.75;;;3.10;;
72573;SDS011;60603;52.548;13.420;2023-05-17T05:47:02;10.18;;;2.85;;
72573;SDS011;60603;52.548;13.420;2023-05-17T05:49:28;8.85;;;3.35;;
72573;SDS011;60603;52.548;13.420;2023-05-17T05:51:53;9.23;;;2.72;;
72573;SDS011;60603;52.548;13.420;2023-05-17T05:54:19;12.57;;;2.95;;
72573;SDS011;60603;52.548;13.420;2023-05-17T05:56:45;12.40;;;3.70;;
72573;SDS011;60603;52.548;13.420;2023-05-17T05:59:11;11.20;;;2.97;;
72573;SDS011;60603;52.548;13.420;2023-05-17T06:01:36;8.77;;;2.90;;
72573;SDS011;60603;52.548;13.420;2023-05-17T06:04:03;8.88;;;2.53;;
72573;SDS011;60603;52.548;13.420;2023-05-17T06:06:28;7.32;;;2.83;;
72573;SDS011;60603;52.548;13.420;2023-05-17T06:08:54;10.32;;;2.55;;
72573;SDS011;60603;52.548;13.420;2023-05-17T06:11:20;11.77;;;2.70;;
72573;SDS011;60603;52.548;13.420;2023-05-17T06:13:46;9.10;;;2.20;;
72573;SDS011;60603;52.548;13.420;2023-05-17T06:16:11;8.05;;;2.67;;
72573;SDS011;60603;52.548;13.420;2023-05-17T06:18:37;12.80;;;2.53;;
72573;SDS011;60603;52.548;13.420;2023-05-17T06:21:03;8.52;;;2.45;;
72573;SDS011;60603;52.548;13.420;2023-05-17T06:23:29;8.68;;;2.00;;
72573;SDS011;60603;52.548;13.420;2023-05-17T06:25:55;12.43;;;2.80;;
72573;SDS011;60603;52.548;13.420;2023-05-17T06:28:21;14.10;;;2.60;;
72573;SDS011;60603;52.548;13.420;2023-05-17T06:30:46;11.02;;;2.55;;
72573;SDS011;60603;52.548;13.420;2023-05-17T06:33:12;12.23;;;2.47;;
72573;SDS011;60603;52.548;13.420;2023-05-17T06:35:37;12.38;;;2.53;;
72573;SDS011;60603;52.548;13.420;2023-05-17T06:38:03;10.65;;;2.20;;
72573;SDS011;60603;52.548;13.420;2023-05-17T06:40:29;8.52;;;2.63;;
72573;SDS011;60603;52.548;13.420;2023-05-17T06:42:55;11.90;;;2.67;;
72573;SDS011;60603;52.548;13.420;2023-05-17T06:45:20;11.13;;;1.77;;
72573;SDS011;60603;52.548;13.420;2023-05-17T06:47:46;9.98;;;2.10;;
72573;SDS011;60603;52.548;13.420;2023-05-17T06:50:12;10.05;;;1.88;;
72573;SDS011;60603;52.548;13.420;2023-05-17T06:52:38;13.88;;;2.40;;
72573;SDS011;60603;52.548;13.420;2023-05-17T06:55:04;7.47;;;1.60;;
72573;SDS011;60603;52.548;13.420;2023-05-17T06:57:30;7.50;;;2.00;;
72573;SDS011;60603;52.548;13.420;2023-05-17T06:59:56;9.88;;;2.35;;
72573;SDS011;60603;52.548;13.420;2023-05-17T07:02:22;8.10;;;1.70;;
72573;SDS011;60603;52.548;13.420;2023-05-17T07:04:47;7.80;;;1.92;;
72573;SDS011;60603;52.548;13.420;2023-05-17T07:07:13;6.22;;;1.70;;
72573;SDS011;60603;52.548;13.420;2023-05-17T07:09:39;4.43;;;1.63;;
72573;SDS011;60603;52.548;13.420;2023-05-17T07:12:05;8.60;;;1.83;;
72573;SDS011;60603;52.548;13.420;2023-05-17T07:14:31;6.40;;;1.67;;
72573;SDS011;60603;52.548;13.420;2023-05-17T07:16:57;5.00;;;1.70;;
72573;SDS011;60603;52.548;13.420;2023-05-17T07:19:23;6.65;;;1.40;;
72573;SDS011;60603;52.548;13.420;2023-05-17T07:21:51;6.60;;;1.77;;
72573;SDS011;60603;52.548;13.420;2023-05-17T07:24:16;8.75;;;2.08;;
72573;SDS011;60603;52.548;13.420;2023-05-17T07:26:42;7.28;;;1.70;;
72573;SDS011;60603;52.548;13.420;2023-05-17T07:29:08;7.15;;;1.60;;
72573;SDS011;60603;52.548;13.420;2023-05-17T07:31:34;6.93;;;1.73;;
72573;SDS011;60603;52.548;13.420;2023-05-17T07:33:59;13.75;;;2.63;;
72573;SDS011;60603;52.548;13.420;2023-05-17T07:36:25;14.20;;;2.05;;
72573;SDS011;60603;52.548;13.420;2023-05-17T07:38:55;6.13;;;1.52;;
72573;SDS011;60603;52.548;13.420;2023-05-17T07:41:21;8.95;;;2.05;;
72573;SDS011;60603;52.548;13.420;2023-05-17T07:43:47;10.10;;;1.65;;
72573;SDS011;60603;52.548;13.420;2023-05-17T07:46:13;7.93;;;1.52;;
72573;SDS011;60603;52.548;13.420;2023-05-17T07:48:39;8.70;;;1.65;;
72573;SDS011;60603;52.548;13.420;2023-05-17T07:51:05;9.95;;;2.00;;
72573;SDS011;60603;52.548;13.420;2023-05-17T07:53:30;11.77;;;2.60;;
72573;SDS011;60603;52.548;13.420;2023-05-17T07:55:56;9.13;;;2.30;;
72573;SDS011;60603;52.548;13.420;2023-05-17T07:58:22;17.60;;;3.00;;
72573;SDS011;60603;52.548;13.420;2023-05-17T08:00:47;8.68;;;2.83;;
72573;SDS011;60603;52.548;13.420;2023-05-17T08:03:13;11.15;;;2.10;;
72573;SDS011;60603;52.548;13.420;2023-05-17T08:05:39;12.07;;;2.35;;
72573;SDS011;60603;52.548;13.420;2023-05-17T08:08:05;10.13;;;2.13;;
72573;SDS011;60603;52.548;13.420;2023-05-17T08:10:30;8.13;;;2.03;;
72573;SDS011;60603;52.548;13.420;2023-05-17T08:12:58;7.30;;;1.98;;
72573;SDS011;60603;52.548;13.420;2023-05-17T08:15:24;12.48;;;2.67;;
72573;SDS011;60603;52.548;13.420;2023-05-17T08:17:50;16.90;;;2.60;;
72573;SDS011;60603;52.548;13.420;2023-05-17T08:20:16;10.98;;;1.80;;
72573;SDS011;60603;52.548;13.420;2023-05-17T08:22:42;8.13;;;2.03;;
72573;SDS011;60603;52.548;13.420;2023-05-17T08:25:08;8.52;;;2.08;;
72573;SDS011;60603;52.548;13.420;2023-05-17T08:27:33;7.47;;;2.15;;
72573;SDS011;60603;52.548;13.420;2023-05-17T08:29:59;7.50;;;1.77;;
72573;SDS011;60603;52.548;13.420;2023-05-17T08:32:25;6.45;;;2.10;;
72573;SDS011;60603;52.548;13.420;2023-05-17T08:34:51;9.50;;;1.40;;
72573;SDS011;60603;52.548;13.420;2023-05-17T08:37:17;7.90;;;1.95;;
72573;SDS011;60603;52.548;13.420;2023-05-17T08:39:43;7.68;;;1.50;;
72573;SDS011;60603;52.548;13.420;2023-05-17T08:42:08;7.18;;;2.17;;
72573;SDS011;60603;52.548;13.420;2023-05-17T08:44:35;8.32;;;1.70;;
72573;SDS011;60603;52.548;13.420;2023-05-17T08:47:01;9.50;;;2.25;;
72573;SDS011;60603;52.548;13.420;2023-05-17T08:49:29;11.55;;;1.95;;
72573;SDS011;60603;52.548;13.420;2023-05-17T08:51:56;8.63;;;2.00;;
72573;SDS011;60603;52.548;13.420;2023-05-17T08:54:25;8.98;;;1.70;;
72573;SDS011;60603;52.548;13.420;2023-05-17T08:56:52;5.32;;;1.58;;
72573;SDS011;60603;52.548;13.420;2023-05-17T08:59:19;9.57;;;1.90;;
72573;SDS011;60603;52.548;13.420;2023-05-17T09:01:48;7.32;;;1.67;;
72573;SDS011;60603;52.548;13.420;2023-05-17T09:04:16;10.00;;;1.85;;
72573;SDS011;60603;52.548;13.420;2023-05-17T09:06:42;8.65;;;1.80;;
72573;SDS011;60603;52.548;13.420;2023-05-17T09:09:09;13.85;;;1.70;;
72573;SDS011;60603;52.548;13.420;2023-05-17T09:11:34;8.60;;;2.13;;
72573;SDS011;60603;52.548;13.420;2023-05-17T09:14:04;6.43;;;2.10;;
72573;SDS011;60603;52.548;13.420;2023-05-17T09:16:31;6.93;;;1.40;;
72573;SDS011;60603;52.548;13.420;2023-05-17T09:19:01;5.65;;;1.60;;
72573;SDS011;60603;52.548;13.420;2023-05-17T09:21:28;7.55;;;1.48;;
72573;SDS011;60603;52.548;13.420;2023-05-17T09:23:57;8.82;;;1.65;;
72573;SDS011;60603;52.548;13.420;2023-05-17T09:26:42;11.27;;;1.77;;
72573;SDS011;60603;52.548;13.420;2023-05-17T09:29:12;10.93;;;1.80;;
72573;SDS011;60603;52.548;13.420;2023-05-17T09:31:39;9.48;;;1.92;;
72573;SDS011;60603;52.548;13.420;2023-05-17T09:34:05;8.52;;;1.90;;
72573;SDS011;60603;52.548;13.420;2023-05-17T09:36:32;9.75;;;2.28;;
72573;SDS011;60603;52.548;13.420;2023-05-17T09:39:00;8.07;;;2.25;;
72573;SDS011;60603;52.548;13.420;2023-05-17T09:41:30;6.80;;;1.58;;
72573;SDS011;60603;52.548;13.420;2023-05-17T09:43:57;10.52;;;2.03;;
72573;SDS011;60603;52.548;13.420;2023-05-17T09:46:25;12.02;;;1.85;;
72573;SDS011;60603;52.548;13.420;2023-05-17T09:48:54;10.32;;;2.13;;
72573;SDS011;60603;52.548;13.420;2023-05-17T09:51:30;9.30;;;1.70;;
72573;SDS011;60603;52.548;13.420;2023-05-17T09:54:17;7.60;;;1.63;;
72573;SDS011;60603;52.548;13.420;2023-05-17T09:56:43;9.98;;;2.55;;
72573;SDS011;60603;52.548;13.420;2023-05-17T09:59:13;4.93;;;1.27;;
72573;SDS011;60603;52.548;13.420;2023-05-17T10:01:39;6.90;;;1.67;;
72573;SDS011;60603;52.548;13.420;2023-05-17T10:04:08;10.00;;;1.80;;
72573;SDS011;60603;52.548;13.420;2023-05-17T10:06:34;8.60;;;1.50;;
72573;SDS011;60603;52.548;13.420;2023-05-17T10:09:03;10.30;;;1.90;;
72573;SDS011;60603;52.548;13.420;2023-05-17T10:11:30;9.32;;;1.67;;
72573;SDS011;60603;52.548;13.420;2023-05-17T10:14:10;9.68;;;1.70;;
72573;SDS011;60603;52.548;13.420;2023-05-17T10:16:37;7.00;;;1.50;;
72573;SDS011;60603;52.548;13.420;2023-05-17T10:19:04;8.25;;;1.52;;
72573;SDS011;60603;52.548;13.420;2023-05-17T10:21:30;9.25;;;2.17;;
72573;SDS011;60603;52.548;13.420;2023-05-17T10:23:57;6.20;;;1.73;;
72573;SDS011;60603;52.548;13.420;2023-05-17T10:26:23;8.18;;;1.50;;
72573;SDS011;60603;52.548;13.420;2023-05-17T10:28:50;6.20;;;1.60;;
72573;SDS011;60603;52.548;13.420;2023-05-17T10:31:17;5.18;;;1.30;;
72573;SDS011;60603;52.548;13.420;2023-05-17T10:33:45;9.98;;;1.48;;
72573;SDS011;60603;52.548;13.420;2023-05-17T10:36:13;8.32;;;1.65;;
72573;SDS011;60603;52.548;13.420;2023-05-17T10:38:41;6.80;;;1.52;;
72573;SDS011;60603;52.548;13.420;2023-05-17T10:41:08;8.35;;;2.15;;
72573;SDS011;60603;52.548;13.420;2023-05-17T10:43:35;8.13;;;1.50;;
72573;SDS011;60603;52.548;13.420;2023-05-17T10:46:01;7.47;;;1.80;;
72573;SDS011;60603;52.548;13.420;2023-05-17T10:48:28;8.32;;;1.48;;
72573;SDS011;60603;52.548;13.420;2023-05-17T10:50:55;9.43;;;1.80;;
72573;SDS011;60603;52.548;13.420;2023-05-17T10:53:21;8.05;;;2.50;;
72573;SDS011;60603;52.548;13.420;2023-05-17T10:55:46;6.30;;;1.67;;
72573;SDS011;60603;52.548;13.420;2023-05-17T10:58:13;6.57;;;1.80;;
72573;SDS011;60603;52.548;13.420;2023-05-17T11:00:44;9.85;;;1.80;;
72573;SDS011;60603;52.548;13.420;2023-05-17T11:03:16;7.80;;;1.73;;
72573;SDS011;60603;52.548;13.420;2023-05-17T11:05:42;7.47;;;1.90;;
72573;SDS011;60603;52.548;13.420;2023-05-17T11:11:25;9.18;;;2.10;;
72573;SDS011;60603;52.548;13.420;2023-05-17T11:13:42;7.20;;;1.40;;
72573;SDS011;60603;52.548;13.420;2023-05-17T11:16:15;7.97;;;1.90;;
72573;SDS011;60603;52.548;13.420;2023-05-17T11:18:45;6.00;;;1.55;;
72573;SDS011;60603;52.548;13.420;2023-05-17T11:23:41;7.20;;;1.90;;
72573;SDS011;60603;52.548;13.420;2023-05-17T11:26:11;10.32;;;2.05;;
72573;SDS011;60603;52.548;13.420;2023-05-17T11:28:51;9.40;;;1.80;;
72573;SDS011;60603;52.548;13.420;2023-05-17T11:31:31;7.47;;;1.80;;
72573;SDS011;60603;52.548;13.420;2023-05-17T11:33:57;7.00;;;1.60;;
72573;SDS011;60603;52.548;13.420;2023-05-17T11:36:24;8.30;;;2.00;;
72573;SDS011;60603;52.548;13.420;2023-05-17T11:39:12;6.45;;;1.67;;
72573;SDS011;60603;52.548;13.420;2023-05-17T11:41:37;5.93;;;1.38;;
72573;SDS011;60603;52.548;13.420;2023-05-17T11:44:10;7.90;;;1.70;;
72573;SDS011;60603;52.548;13.420;2023-05-17T11:46:35;8.43;;;1.70;;
72573;SDS011;60603;52.548;13.420;2023-05-17T11:49:02;5.43;;;1.20;;
72573;SDS011;60603;52.548;13.420;2023-05-17T11:51:30;10.02;;;1.80;;
72573;SDS011;60603;52.548;13.420;2023-05-17T11:53:57;8.68;;;1.65;;
72573;SDS011;60603;52.548;13.420;2023-05-17T11:56:23;9.45;;;1.95;;
72573;SDS011;60603;52.548;13.420;2023-05-17T11:58:52;6.50;;;1.42;;
72573;SDS011;60603;52.548;13.420;2023-05-17T12:01:18;9.40;;;1.52;;
72573;SDS011;60603;52.548;13.420;2023-05-17T12:03:44;7.18;;;1.80;;
72573;SDS011;60603;52.548;13.420;2023-05-17T12:06:12;6.22;;;1.63;;
72573;SDS011;60603;52.548;13.420;2023-05-17T12:08:44;5.20;;;1.40;;
72573;SDS011;60603;52.548;13.420;2023-05-17T12:11:13;9.15;;;1.52;;
72573;SDS011;60603;52.548;13.420;2023-05-17T12:13:41;8.50;;;1.63;;
72573;SDS011;60603;52.548;13.420;2023-05-17T12:16:10;9.52;;;1.58;;
72573;SDS011;60603;52.548;13.420;2023-05-17T12:18:40;9.15;;;1.75;;
72573;SDS011;60603;52.548;13.420;2023-05-17T12:21:07;11.35;;;1.92;;
72573;SDS011;60603;52.548;13.420;2023-05-17T12:23:35;6.80;;;1.60;;
72573;SDS011;60603;52.548;13.420;2023-05-17T12:26:05;6.97;;;1.80;;
72573;SDS011;60603;52.548;13.420;2023-05-17T12:28:55;4.97;;;1.85;;
72573;SDS011;60603;52.548;13.420;2023-05-17T12:31:38;7.63;;;1.70;;
72573;SDS011;60603;52.548;13.420;2023-05-17T12:34:15;6.78;;;1.70;;
72573;SDS011;60603;52.548;13.420;2023-05-17T12:36:41;7.57;;;1.90;;
72573;SDS011;60603;52.548;13.420;2023-05-17T12:39:11;8.63;;;1.63;;
72573;SDS011;60603;52.548;13.420;2023-05-17T12:41:37;7.35;;;1.33;;
72573;SDS011;60603;52.548;13.420;2023-05-17T12:44:04;8.25;;;1.80;;
72573;SDS011;60603;52.548;13.420;2023-05-17T12:46:32;8.82;;;1.50;;
72573;SDS011;60603;52.548;13.420;2023-05-17T12:49:05;6.47;;;1.55;;
72573;SDS011;60603;52.548;13.420;2023-05-17T12:51:42;7.28;;;1.50;;
72573;SDS011;60603;52.548;13.420;2023-05-17T12:54:09;6.35;;;1.52;;
72573;SDS011;60603;52.548;13.420;2023-05-17T12:56:35;8.23;;;1.95;;
72573;SDS011;60603;52.548;13.420;2023-05-17T13:01:33;14.95;;;2.05;;
72573;SDS011;60603;52.548;13.420;2023-05-17T13:04:09;7.50;;;2.03;;
72573;SDS011;60603;52.548;13.420;2023-05-17T13:06:49;9.45;;;2.10;;
72573;SDS011;60603;52.548;13.420;2023-05-17T13:09:16;13.52;;;2.63;;
72573;SDS011;60603;52.548;13.420;2023-05-17T13:11:49;9.82;;;2.10;;
72573;SDS011;60603;52.548;13.420;2023-05-17T13:14:36;8.05;;;1.88;;
72573;SDS011;60603;52.548;13.420;2023-05-17T13:17:02;9.45;;;1.55;;
72573;SDS011;60603;52.548;13.420;2023-05-17T13:19:29;6.78;;;1.70;;
72573;SDS011;60603;52.548;13.420;2023-05-17T13:21:55;7.82;;;2.10;;
72573;SDS011;60603;52.548;13.420;2023-05-17T13:24:21;6.53;;;1.77;;
72573;SDS011;60603;52.548;13.420;2023-05-17T13:26:46;8.93;;;1.52;;
72573;SDS011;60603;52.548;13.420;2023-05-17T13:29:12;7.55;;;2.15;;
72573;SDS011;60603;52.548;13.420;2023-05-17T13:31:38;11.40;;;1.98;;
72573;SDS011;60603;52.548;13.420;2023-05-17T13:34:06;8.63;;;2.38;;
72573;SDS011;60603;52.548;13.420;2023-05-17T13:36:31;5.82;;;1.33;;
72573;SDS011;60603;52.548;13.420;2023-05-17T13:38:57;8.73;;;1.58;;
72573;SDS011;60603;52.548;13.420;2023-05-17T13:41:25;7.13;;;2.00;;
72573;SDS011;60603;52.548;13.420;2023-05-17T13:43:52;5.18;;;1.50;;
72573;SDS011;60603;52.548;13.420;2023-05-17T13:46:17;9.02;;;1.90;;
72573;SDS011;60603;52.548;13.420;2023-05-17T13:48:43;6.30;;;1.63;;
72573;SDS011;60603;52.548;13.420;2023-05-17T13:51:09;8.35;;;2.30;;
72573;SDS011;60603;52.548;13.420;2023-05-17T13:53:35;12.32;;;1.98;;
72573;SDS011;60603;52.548;13.420;2023-05-17T13:56:02;8.93;;;1.90;;
72573;SDS011;60603;52.548;13.420;2023-05-17T13:58:28;11.18;;;1.75;;
72573;SDS011;60603;52.548;13.420;2023-05-17T14:00:54;6.45;;;1.55;;
72573;SDS011;60603;52.548;13.420;2023-05-17T14:03:20;10.48;;;2.20;;
72573;SDS011;60603;52.548;13.420;2023-05-17T14:05:46;7.63;;;1.50;;
72573;SDS011;60603;52.548;13.420;2023-05-17T14:08:18;8.13;;;2.08;;
72573;SDS011;60603;52.548;13.420;2023-05-17T14:10:44;11.55;;;2.10;;
72573;SDS011;60603;52.548;13.420;2023-05-17T14:13:10;5.25;;;1.70;;
72573;SDS011;60603;52.548;13.420;2023-05-17T14:15:37;7.38;;;2.25;;
72573;SDS011;60603;52.548;13.420;2023-05-17T14:18:04;5.80;;;1.83;;
72573;SDS011;60603;52.548;13.420;2023-05-17T14:20:30;8.57;;;1.63;;
72573;SDS011;60603;52.548;13.420;2023-05-17T14:22:57;9.68;;;1.63;;
72573;SDS011;60603;52.548;13.420;2023-05-17T14:25:22;11.07;;;1.77;;
72573;SDS011;60603;52.548;13.420;2023-05-17T14:27:48;6.80;;;1.92;;
72573;SDS011;60603;52.548;13.420;2023-05-17T14:30:14;10.13;;;1.98;;
72573;SDS011;60603;52.548;13.420;2023-05-17T14:32:40;7.00;;;1.80;;
72573;SDS011;60603;52.548;13.420;2023-05-17T14:35:06;8.93;;;2.10;;
72573;SDS011;60603;52.548;13.420;2023-05-17T14:37:32;4.60;;;1.48;;
72573;SDS011;60603;52.548;13.420;2023-05-17T14:39:59;6.22;;;1.50;;
72573;SDS011;60603;52.548;13.420;2023-05-17T14:42:26;8.30;;;1.67;;
72573;SDS011;60603;52.548;13.420;2023-05-17T14:44:52;5.50;;;1.33;;
72573;SDS011;60603;52.548;13.420;2023-05-17T14:47:18;5.22;;;1.30;;
72573;SDS011;60603;52.548;13.420;2023-05-17T14:49:46;7.03;;;1.60;;